createdAt,value
2023-03-20T00:01:33.605Z,78.87
2023-03-20T00:04:04.083Z,80.53
2023-03-20T00:06:34.790Z,84.33
2023-03-20T00:09:07.254Z,82.60
2023-03-20T00:11:41.773Z,79.23
2023-03-20T00:14:14.977Z,76.37
2023-03-20T00:16:46.002Z,76.03
2023-03-20T00:19:19.059Z,75.13
2023-03-20T00:21:50.955Z,69.43
2023-03-20T00:24:20.749Z,73.07
2023-03-20T00:26:52.186Z,74.80
2023-03-20T00:29:24.339Z,71.37
2023-03-20T00:31:54.470Z,71.33
2023-03-20T00:34:26.177Z,64.20
2023-03-20T00:36:58.746Z,69.27
2023-03-20T00:39:28.030Z,66.10
2023-03-20T00:41:59.946Z,74.37
2023-03-20T00:44:33.557Z,71.00
2023-03-20T00:47:06.017Z,72.17
2023-03-20T00:49:38.750Z,75.93
2023-03-20T00:52:14.250Z,65.33
2023-03-20T00:54:43.211Z,70.73
2023-03-20T00:57:18.213Z,71.80
2023-03-20T00:59:56.431Z,66.60
2023-03-20T01:02:29.315Z,65.27
2023-03-20T01:04:58.805Z,63.60
2023-03-20T01:07:30.373Z,63.93
2023-03-20T01:09:59.642Z,62.97
2023-03-20T01:12:28.665Z,61.13
2023-03-20T01:14:59.953Z,60.10
2023-03-20T01:17:30.793Z,57.80
2023-03-20T01:19:59.983Z,59.70
2023-03-20T01:22:31.945Z,56.50
2023-03-20T01:25:01.345Z,60.03
2023-03-20T01:27:30.072Z,53.90
2023-03-20T01:29:59.425Z,57.60
2023-03-20T01:32:29.132Z,57.77
2023-03-20T01:34:58.989Z,49.33
2023-03-20T01:37:30.846Z,49.53
2023-03-20T01:40:05.103Z,50.63
2023-03-20T01:42:35.745Z,48.27
2023-03-20T01:45:16.736Z,46.93
2023-03-20T01:47:46.465Z,45.93
2023-03-20T01:50:30.178Z,42.40
2023-03-20T01:53:13.151Z,49.07
2023-03-20T01:55:50.679Z,45.60
2023-03-20T01:58:23.780Z,47.20
2023-03-20T02:00:54.108Z,44.37
2023-03-20T02:03:24.322Z,44.43
2023-03-20T02:06:02.224Z,44.57
2023-03-20T02:08:54.122Z,38.47
2023-03-20T02:11:26.262Z,46.50
2023-03-20T02:13:58.184Z,46.83
2023-03-20T02:16:29.482Z,45.83
2023-03-20T02:19:08.366Z,44.27
2023-03-20T02:22:14.624Z,44.43
2023-03-20T02:25:17.063Z,45.40
2023-03-20T02:28:08.750Z,41.50
2023-03-20T02:31:07.991Z,41.00
2023-03-20T02:34:09.351Z,44.13
2023-03-20T02:37:08.502Z,43.67
2023-03-20T02:39:51.810Z,47.47
2023-03-20T02:42:33.732Z,41.93
2023-03-20T02:45:12.053Z,43.40
2023-03-20T02:47:48.640Z,47.03
2023-03-20T02:50:27.977Z,41.63
2023-03-20T02:53:07.237Z,49.77
2023-03-20T02:55:42.161Z,51.87
2023-03-20T02:58:17.201Z,57.33
2023-03-20T03:00:52.259Z,53.27
2023-03-20T03:03:26.924Z,56.77
2023-03-20T03:06:00.841Z,58.17
2023-03-20T03:08:35.581Z,53.43
2023-03-20T03:11:08.905Z,52.27
2023-03-20T03:13:42.973Z,56.07
2023-03-20T03:16:17.416Z,48.23
2023-03-20T03:18:48.244Z,44.27
2023-03-20T03:21:19.240Z,46.40
2023-03-20T03:23:50.602Z,44.60
2023-03-20T03:26:26.502Z,44.43
2023-03-20T03:29:03.247Z,44.03
2023-03-20T03:31:33.848Z,49.13
2023-03-20T03:34:03.706Z,45.00
2023-03-20T03:36:42.053Z,45.67
2023-03-20T03:39:19.778Z,42.87
2023-03-20T03:41:53.981Z,47.00
2023-03-20T03:44:30.607Z,42.20
2023-03-20T03:47:05.380Z,50.53
2023-03-20T03:49:38.930Z,48.13
2023-03-20T03:52:12.068Z,45.60
2023-03-20T03:54:45.264Z,49.07
2023-03-20T03:57:52.083Z,47.87
2023-03-20T04:00:25.362Z,50.13
2023-03-20T04:02:57.479Z,47.23
2023-03-20T04:05:32.049Z,43.93
2023-03-20T04:08:02.878Z,55.33
2023-03-20T04:10:31.934Z,48.80
2023-03-20T04:13:02.630Z,43.17
2023-03-20T04:15:33.129Z,44.17
2023-03-20T04:18:02.598Z,44.10
2023-03-20T04:20:32.809Z,49.70
2023-03-20T04:23:02.614Z,48.87
2023-03-20T04:25:32.242Z,46.63
2023-03-20T04:28:02.724Z,40.83
2023-03-20T04:30:38.691Z,37.27
2023-03-20T04:33:18.031Z,41.30
2023-03-20T04:36:22.880Z,38.80
2023-03-20T04:38:57.031Z,41.60
2023-03-20T04:41:27.360Z,38.40
2023-03-20T04:44:01.542Z,37.80
2023-03-20T04:46:32.421Z,42.97
2023-03-20T04:49:03.264Z,55.37
2023-03-20T04:51:32.907Z,53.63
2023-03-20T04:54:01.984Z,55.47
2023-03-20T04:56:31.336Z,48.07
2023-03-20T04:59:15.712Z,86.80
2023-03-20T05:01:44.768Z,78.97
2023-03-20T05:04:13.962Z,65.03
2023-03-20T05:06:44.185Z,63.70
2023-03-20T05:09:13.072Z,57.70
2023-03-20T05:11:42.141Z,44.53
2023-03-20T05:14:34.611Z,43.33
2023-03-20T05:17:27.006Z,41.27
2023-03-20T05:20:22.307Z,39.87
2023-03-20T05:23:08.102Z,44.07
2023-03-20T05:25:53.182Z,45.13
2023-03-20T05:28:42.251Z,40.80
2023-03-20T05:31:32.056Z,46.10
2023-03-20T05:34:11.969Z,42.83
2023-03-20T05:36:50.966Z,42.30
2023-03-20T05:39:24.123Z,42.87
2023-03-20T05:42:23.180Z,46.87
2023-03-20T05:45:21.472Z,45.73
2023-03-20T05:48:27.564Z,49.27
2023-03-20T05:51:12.745Z,51.77
2023-03-20T05:53:54.615Z,45.07
2023-03-20T05:56:50.032Z,47.43
2023-03-20T05:59:34.097Z,55.50
2023-03-20T06:02:19.549Z,52.40
2023-03-20T06:05:00.776Z,44.10
2023-03-20T06:07:32.467Z,47.03
2023-03-20T06:10:09.270Z,42.70
2023-03-20T06:12:39.232Z,46.43
2023-03-20T06:15:10.013Z,48.40
2023-03-20T06:17:43.837Z,46.70
2023-03-20T06:20:17.450Z,40.23
2023-03-20T06:22:47.610Z,42.50
2023-03-20T06:25:18.616Z,39.60
2023-03-20T06:27:49.372Z,39.60
2023-03-20T06:30:21.918Z,46.37
2023-03-20T06:32:52.098Z,36.87
2023-03-20T06:35:23.826Z,37.40
2023-03-20T06:37:53.687Z,35.03
2023-03-20T06:40:27.820Z,28.73
2023-03-20T06:42:58.046Z,31.07
2023-03-20T06:45:35.732Z,28.20
2023-03-20T06:48:10.250Z,26.77
2023-03-20T06:50:42.132Z,25.37
2023-03-20T06:53:12.544Z,25.67
2023-03-20T06:55:50.435Z,27.00
2023-03-20T06:58:20.679Z,29.00
2023-03-20T07:00:54.836Z,30.07
2023-03-20T07:03:24.525Z,28.53
2023-03-20T07:05:56.260Z,24.27
2023-03-20T07:08:26.259Z,25.83
2023-03-20T07:10:55.425Z,27.83
2023-03-20T07:13:24.992Z,25.70
2023-03-20T07:16:04.168Z,26.37
2023-03-20T07:18:41.069Z,25.73
2023-03-20T07:21:16.047Z,24.67
2023-03-20T07:23:45.337Z,23.40
2023-03-20T07:26:15.699Z,25.20
2023-03-20T07:28:45.155Z,25.93
2023-03-20T07:31:27.144Z,26.17
2023-03-20T07:34:05.553Z,28.97
2023-03-20T07:36:38.211Z,27.77
2023-03-20T07:39:08.621Z,24.03
2023-03-20T07:41:40.174Z,26.53
2023-03-20T07:44:11.894Z,26.60
2023-03-20T07:46:55.288Z,30.17
2023-03-20T07:49:26.420Z,24.10
2023-03-20T07:51:57.897Z,25.77
2023-03-20T07:54:27.251Z,26.63
2023-03-20T07:56:56.727Z,26.50
2023-03-20T07:59:26.766Z,23.27
2023-03-20T08:01:56.506Z,25.03
2023-03-20T08:04:25.972Z,23.07
2023-03-20T08:06:56.876Z,24.03
2023-03-20T08:09:26.392Z,22.17
2023-03-20T08:11:55.697Z,21.73
2023-03-20T08:14:25.372Z,22.40
2023-03-20T08:17:12.347Z,23.70
2023-03-20T08:19:42.995Z,21.60
2023-03-20T08:22:14.265Z,27.17
2023-03-20T08:24:43.815Z,24.77
2023-03-20T08:27:14.035Z,24.70
2023-03-20T08:29:43.429Z,21.43
2023-03-20T08:32:12.515Z,27.13
2023-03-20T08:34:42.947Z,25.30
2023-03-20T08:37:14.435Z,31.17
2023-03-20T08:39:44.000Z,27.30
2023-03-20T08:42:13.181Z,28.80
2023-03-20T08:44:42.502Z,25.13
2023-03-20T08:47:12.727Z,25.33
2023-03-20T08:49:42.118Z,22.77
2023-03-20T08:52:13.340Z,24.83
2023-03-20T08:54:42.900Z,28.07
2023-03-20T08:57:15.483Z,23.63
2023-03-20T08:59:44.887Z,24.00
2023-03-20T09:02:15.072Z,27.17
2023-03-20T09:04:44.665Z,25.73
2023-03-20T09:07:16.461Z,31.87
2023-03-20T09:09:47.379Z,24.00
2023-03-20T09:12:17.517Z,24.20
2023-03-20T09:14:46.848Z,26.73
2023-03-20T09:17:16.191Z,27.40
2023-03-20T09:19:45.383Z,25.80
2023-03-20T09:22:18.710Z,29.53
2023-03-20T09:24:48.291Z,29.57
2023-03-20T09:27:17.604Z,26.90
2023-03-20T09:29:47.270Z,25.53
2023-03-20T09:32:17.189Z,27.17
2023-03-20T09:34:46.863Z,24.77
2023-03-20T09:37:20.938Z,31.17
2023-03-20T09:39:50.185Z,24.40
2023-03-20T09:42:30.090Z,26.87
2023-03-20T09:45:07.679Z,29.60
2023-03-20T09:47:46.355Z,28.47
2023-03-20T09:50:26.873Z,24.00
2023-03-20T09:53:01.727Z,24.27
2023-03-20T09:55:37.153Z,24.97
2023-03-20T09:58:14.111Z,19.07
2023-03-20T10:00:46.678Z,21.57
2023-03-20T10:03:22.073Z,21.30
2023-03-20T10:05:57.861Z,23.70
2023-03-20T10:08:33.419Z,21.37
2023-03-20T10:11:10.766Z,20.90
2023-03-20T10:13:56.326Z,18.43
2023-03-20T10:16:35.298Z,17.50
2023-03-20T10:19:12.853Z,17.70
2023-03-20T10:21:45.994Z,20.60
2023-03-20T10:24:22.244Z,22.90
2023-03-20T10:26:55.361Z,18.73
2023-03-20T10:29:34.879Z,17.23
2023-03-20T10:32:10.464Z,17.83
2023-03-20T10:35:02.969Z,19.07
2023-03-20T10:37:49.232Z,15.93
2023-03-20T10:40:39.895Z,15.67
2023-03-20T10:43:18.200Z,15.07
2023-03-20T10:45:51.495Z,13.17
2023-03-20T10:48:29.207Z,14.07
2023-03-20T10:51:02.348Z,13.05
2023-03-20T10:53:34.107Z,15.52
2023-03-20T10:56:10.595Z,14.55
2023-03-20T10:58:42.307Z,11.77
2023-03-20T11:01:11.663Z,12.25
2023-03-20T11:03:41.574Z,13.82
2023-03-20T11:06:19.643Z,16.05
2023-03-20T11:08:52.112Z,15.32
2023-03-20T11:11:30.823Z,12.55
2023-03-20T11:14:11.384Z,12.63
2023-03-20T11:16:41.587Z,12.13
2023-03-20T11:19:15.700Z,13.35
2023-03-20T11:21:51.635Z,10.50
2023-03-20T11:24:30.264Z,11.38
2023-03-20T11:27:10.289Z,11.38
2023-03-20T11:29:42.219Z,11.90
2023-03-20T11:32:24.089Z,10.32
2023-03-20T11:34:54.511Z,10.02
2023-03-20T11:37:27.098Z,8.60
2023-03-20T11:40:00.257Z,11.18
2023-03-20T11:42:35.171Z,11.57
2023-03-20T11:45:07.218Z,15.40
2023-03-20T11:47:38.480Z,13.02
2023-03-20T11:50:09.536Z,10.82
2023-03-20T11:52:43.058Z,11.13
2023-03-20T11:55:26.714Z,13.23
2023-03-20T11:58:01.172Z,9.95
2023-03-20T12:00:44.895Z,11.43
2023-03-20T12:03:38.757Z,11.27
2023-03-20T12:06:09.898Z,13.77
2023-03-20T12:08:48.070Z,14.32
2023-03-20T12:11:43.194Z,13.05
2023-03-20T12:14:26.605Z,11.18
2023-03-20T12:17:06.842Z,11.60
2023-03-20T12:19:37.677Z,10.10
2023-03-20T12:22:20.103Z,12.27
2023-03-20T12:24:57.242Z,15.35
2023-03-20T12:27:45.588Z,11.55
2023-03-20T12:30:23.282Z,9.80
2023-03-20T12:33:00.697Z,14.95
2023-03-20T12:35:38.148Z,8.95
2023-03-20T12:38:24.056Z,10.63
2023-03-20T12:40:58.696Z,10.15
2023-03-20T12:43:29.473Z,12.48
2023-03-20T12:46:11.321Z,9.63
2023-03-20T12:48:52.731Z,8.73
2023-03-20T12:51:42.885Z,10.35
2023-03-20T12:54:30.040Z,12.15
2023-03-20T12:57:11.978Z,9.80
2023-03-20T13:00:04.387Z,12.48
2023-03-20T13:02:47.694Z,12.93
2023-03-20T13:05:32.886Z,12.55
2023-03-20T13:08:25.688Z,11.10
2023-03-20T13:11:02.853Z,14.38
2023-03-20T13:13:38.864Z,17.38
2023-03-20T13:16:18.544Z,16.23
2023-03-20T13:18:59.236Z,16.83
2023-03-20T13:21:38.294Z,16.35
2023-03-20T13:24:33.485Z,16.95
2023-03-20T13:27:13.564Z,15.48
2023-03-20T13:29:50.774Z,15.52
2023-03-20T13:32:30.164Z,15.65
2023-03-20T13:35:21.709Z,16.65
2023-03-20T13:37:55.389Z,12.98
2023-03-20T13:40:28.130Z,12.30
2023-03-20T13:43:03.630Z,14.40
2023-03-20T13:45:37.135Z,15.57
2023-03-20T13:48:22.573Z,17.20
2023-03-20T13:51:02.218Z,17.33
2023-03-20T13:53:40.642Z,9.57
2023-03-20T13:56:29.435Z,9.48
2023-03-20T13:59:21.835Z,7.22
2023-03-20T14:02:01.186Z,6.72
2023-03-20T14:04:34.094Z,8.23
2023-03-20T14:07:24.953Z,7.60
2023-03-20T14:10:03.595Z,4.28
2023-03-20T14:12:36.956Z,2.33
2023-03-20T14:15:07.260Z,3.30
2023-03-20T14:17:36.169Z,3.22
2023-03-20T14:20:26.202Z,4.25
2023-03-20T14:22:59.910Z,5.30
2023-03-20T14:25:35.000Z,4.55
2023-03-20T14:28:25.488Z,3.15
2023-03-20T14:31:15.537Z,5.90
2023-03-20T14:33:45.837Z,6.13
2023-03-20T14:36:23.357Z,5.40
2023-03-20T14:39:04.983Z,8.68
2023-03-20T14:41:42.242Z,6.50
2023-03-20T14:44:27.260Z,8.15
2023-03-20T14:47:04.153Z,9.93
2023-03-20T14:49:54.497Z,8.77
2023-03-20T14:52:34.800Z,12.43
2023-03-20T14:55:34.037Z,12.63
2023-03-20T14:58:30.964Z,7.27
2023-03-20T15:01:05.275Z,8.20
2023-03-20T15:03:40.630Z,6.73
2023-03-20T15:06:11.289Z,8.67
2023-03-20T15:08:50.056Z,7.07
2023-03-20T15:11:25.053Z,8.93
2023-03-20T15:13:55.708Z,8.13
2023-03-20T15:16:34.279Z,9.17
2023-03-20T15:19:07.041Z,11.80
2023-03-20T15:21:46.411Z,8.63
2023-03-20T15:24:24.879Z,9.40
2023-03-20T15:26:59.184Z,7.63
2023-03-20T15:29:32.243Z,8.17
2023-03-20T15:32:14.000Z,9.73
2023-03-20T15:34:45.002Z,9.53
2023-03-20T15:37:21.597Z,7.90
2023-03-20T15:39:52.886Z,9.07
2023-03-20T15:42:25.772Z,6.27
2023-03-20T15:44:56.650Z,5.47
2023-03-20T15:47:27.127Z,6.27
2023-03-20T15:50:00.377Z,6.27
2023-03-20T15:52:35.621Z,7.07
2023-03-20T15:55:07.988Z,6.93
2023-03-20T15:57:40.884Z,5.30
2023-03-20T16:00:17.150Z,4.87
2023-03-20T16:02:48.933Z,8.03
2023-03-20T16:05:20.054Z,4.37
2023-03-20T16:07:49.645Z,4.43
2023-03-20T16:10:21.076Z,4.80
2023-03-20T16:12:54.918Z,5.50
2023-03-20T16:15:28.149Z,4.90
2023-03-20T16:18:00.139Z,5.83
2023-03-20T16:20:32.750Z,7.70
2023-03-20T16:23:05.877Z,9.97
2023-03-20T16:25:37.464Z,7.53
2023-03-20T16:28:15.979Z,8.97
2023-03-20T16:30:44.983Z,8.37
2023-03-20T16:33:17.561Z,14.50
2023-03-20T16:35:51.136Z,8.20
2023-03-20T16:38:26.669Z,5.67
2023-03-20T16:40:58.669Z,8.17
2023-03-20T16:43:33.134Z,7.27
2023-03-20T16:46:08.239Z,4.93
2023-03-20T16:48:40.116Z,5.77
2023-03-20T16:51:18.031Z,4.60
2023-03-20T16:53:49.446Z,6.23
2023-03-20T16:56:24.150Z,6.70
2023-03-20T16:58:56.776Z,8.80
2023-03-20T17:01:29.298Z,4.23
2023-03-20T17:04:01.478Z,4.33
2023-03-20T17:06:37.271Z,6.93
2023-03-20T17:09:27.195Z,7.40
2023-03-20T17:12:05.322Z,7.03
2023-03-20T17:14:36.455Z,6.73
2023-03-20T17:17:05.866Z,10.57
2023-03-20T17:19:35.831Z,8.30
2023-03-20T17:22:08.115Z,9.60
2023-03-20T17:24:37.993Z,8.53
2023-03-20T17:27:08.181Z,11.80
2023-03-20T17:29:39.523Z,11.20
2023-03-20T17:32:12.401Z,11.27
2023-03-20T17:34:43.444Z,14.30
2023-03-20T17:37:16.057Z,16.77
2023-03-20T17:39:45.445Z,12.40
2023-03-20T17:42:20.056Z,12.60
2023-03-20T17:44:51.513Z,12.67
2023-03-20T17:47:23.274Z,13.27
2023-03-20T17:49:55.477Z,12.97
2023-03-20T17:52:26.832Z,13.80
2023-03-20T17:54:58.094Z,13.93
2023-03-20T17:57:34.538Z,16.53
2023-03-20T18:00:08.412Z,12.37
2023-03-20T18:02:37.763Z,12.93
2023-03-20T18:05:08.274Z,12.67
2023-03-20T18:08:03.920Z,12.03
2023-03-20T18:10:40.234Z,11.40
2023-03-20T18:13:10.905Z,10.83
2023-03-20T18:15:44.735Z,11.60
2023-03-20T18:18:14.225Z,13.60
2023-03-20T18:20:44.372Z,16.03
2023-03-20T18:23:15.340Z,14.97
2023-03-20T18:25:45.381Z,12.60
2023-03-20T18:28:20.990Z,18.23
2023-03-20T18:30:52.552Z,14.53
2023-03-20T18:33:25.906Z,16.13
2023-03-20T18:35:57.492Z,19.10
2023-03-20T18:38:28.618Z,17.90
2023-03-20T18:40:59.854Z,18.23
2023-03-20T18:43:31.354Z,21.40
2023-03-20T18:46:02.917Z,18.87
2023-03-20T18:48:32.925Z,20.10
2023-03-20T18:51:03.548Z,19.60
2023-03-20T18:53:33.377Z,17.33
2023-03-20T18:56:02.983Z,19.77
2023-03-20T18:58:33.554Z,20.50
2023-03-20T19:01:04.476Z,18.00
2023-03-20T19:03:40.479Z,20.90
2023-03-20T19:06:14.602Z,20.23
2023-03-20T19:08:44.658Z,20.97
2023-03-20T19:11:20.515Z,24.90
2023-03-20T19:13:51.858Z,23.53
2023-03-20T19:16:38.749Z,22.43
2023-03-20T19:19:09.598Z,22.83
2023-03-20T19:21:38.784Z,21.27
2023-03-20T19:24:11.548Z,24.93
2023-03-20T19:26:41.638Z,23.90
2023-03-20T19:29:14.878Z,23.03
2023-03-20T19:31:45.989Z,24.87
2023-03-20T19:34:44.557Z,22.63
2023-03-20T19:37:04.725Z,24.10
2023-03-20T19:39:34.338Z,21.23
2023-03-20T19:42:37.838Z,22.00
2023-03-20T19:44:57.581Z,21.37
2023-03-20T19:47:28.847Z,22.83
2023-03-20T19:49:58.980Z,21.30
2023-03-20T19:52:35.055Z,24.33
2023-03-20T19:55:04.793Z,19.97
2023-03-20T19:57:34.422Z,21.40
2023-03-20T20:02:56.455Z,22.97
2023-03-20T20:05:32.157Z,27.00
2023-03-20T20:08:23.435Z,22.40
2023-03-20T20:10:54.434Z,19.47
2023-03-20T20:13:27.682Z,22.23
2023-03-20T20:15:58.326Z,23.23
2023-03-20T20:18:30.517Z,20.50
2023-03-20T20:23:49.990Z,21.17
2023-03-20T20:26:19.771Z,22.07
2023-03-20T20:28:49.581Z,23.67
2023-03-20T20:31:18.684Z,20.87
2023-03-20T20:34:02.100Z,22.10
2023-03-20T20:37:32.250Z,24.70
2023-03-20T20:39:30.335Z,24.97
2023-03-20T20:41:59.206Z,26.63
2023-03-20T20:44:29.473Z,26.77
2023-03-20T20:46:59.994Z,23.00
2023-03-20T20:49:31.446Z,24.67
2023-03-20T20:52:01.110Z,25.00
2023-03-20T20:54:30.923Z,25.23
2023-03-20T20:57:00.646Z,28.20
2023-03-20T20:59:29.940Z,31.63
2023-03-20T21:01:59.363Z,30.40
2023-03-20T21:04:32.005Z,27.80
2023-03-20T21:07:11.216Z,25.20
2023-03-20T21:09:44.214Z,27.00
2023-03-20T21:12:32.285Z,31.43
2023-03-20T21:15:05.715Z,33.33
2023-03-20T21:17:36.064Z,28.67
2023-03-20T21:20:07.727Z,32.67
2023-03-20T21:22:37.978Z,30.27
2023-03-20T21:25:14.968Z,29.47
2023-03-20T21:27:44.613Z,28.07
2023-03-20T21:30:15.648Z,31.73
2023-03-20T21:32:44.937Z,29.97
2023-03-20T21:35:15.990Z,30.30
2023-03-20T21:40:34.444Z,34.40
2023-03-20T21:43:04.165Z,31.53
2023-03-20T21:48:58.811Z,39.57
2023-03-20T22:00:20.213Z,38.83
2023-03-20T22:02:48.787Z,37.87
2023-03-20T22:06:23.785Z,35.90
2023-03-20T22:09:10.040Z,36.77
2023-03-20T22:11:44.984Z,41.70
2023-03-20T22:26:04.812Z,38.87
2023-03-20T22:28:41.839Z,41.43
2023-03-20T22:31:33.658Z,35.77
2023-03-20T22:34:25.745Z,44.67
2023-03-20T22:40:08.680Z,52.97
2023-03-20T22:42:49.074Z,58.60
2023-03-20T22:45:03.826Z,56.90
2023-03-20T22:47:34.039Z,53.50
2023-03-20T22:50:03.668Z,62.37
2023-03-20T22:52:48.061Z,57.40
2023-03-20T22:55:19.152Z,54.07
2023-03-20T22:58:05.781Z,59.63
2023-03-20T23:00:37.432Z,67.17
2023-03-20T23:03:39.965Z,57.60
2023-03-20T23:05:57.390Z,62.67
2023-03-20T23:08:27.980Z,62.87
2023-03-20T23:10:57.020Z,67.63
2023-03-20T23:13:27.591Z,65.40
2023-03-20T23:15:57.205Z,64.07
2023-03-20T23:18:26.517Z,65.63
2023-03-20T23:20:58.887Z,68.63
2023-03-20T23:23:28.227Z,63.60
2023-03-20T23:26:05.413Z,63.87
2023-03-20T23:28:36.284Z,63.50
2023-03-20T23:31:10.700Z,61.73
2023-03-20T23:33:41.373Z,61.33
2023-03-20T23:36:21.827Z,64.00
2023-03-20T23:39:00.684Z,62.00
2023-03-20T23:41:57.394Z,58.00
2023-03-20T23:44:21.621Z,58.97
2023-03-20T23:46:51.111Z,62.13
2023-03-20T23:49:20.364Z,61.27
2023-03-20T23:51:49.113Z,63.30
2023-03-20T23:54:18.460Z,65.77
2023-03-20T23:56:47.571Z,70.73
2023-03-20T23:59:24.286Z,62.80
